Time;durP1;ratioP1;P1;durP2;ratioP2;P2;SDS_P1;SDS_P2;PMS_P1;PMS_P2;Temp;Humidity;BMP_temperature;BMP_pressure;BME280_temperature;BME280_humidity;BME280_pressure;Samples;Min_cycle;Max_cycle;Signal;HPM_P1;HPM_P2
2023/06/11 04:41:43;;;;;;;6.80;4.00;;;;;;;20.61;100.00;100222.16;106066;1291;613450;-86
2023/06/11 04:44:10;;;;;;;4.60;3.20;;;;;;;20.61;100.00;100221.89;108438;1266;60369;-89
2023/06/11 04:46:38;;;;;;;5.80;3.20;;;;;;;20.63;100.00;100222.42;108751;1265;59241;-87
2023/06/11 04:49:06;;;;;;;8.60;3.50;;;;;;;20.64;100.00;100228.45;108768;1265;72270;-86
2023/06/11 04:51:40;;;;;;;7.10;3.70;;;;;;;20.67;100.00;100225.02;108857;1266;62765;-85
2023/06/11 04:54:11;;;;;;;3.40;3.10;;;;;;;20.69;100.00;100224.95;106177;1272;648926;-87
2023/06/11 04:56:44;;;;;;;8.70;3.80;;;;;;;20.70;100.00;100225.02;107198;1264;59308;-86
2023/06/11 04:59:11;;;;;;;7.80;3.60;;;;;;;20.73;100.00;100225.95;106333;1269;60211;-86
2023/06/11 05:01:46;;;;;;;5.40;3.40;;;;;;;20.74;100.00;100230.66;106392;1264;72257;-87
2023/06/11 05:04:14;;;;;;;10.40;3.70;;;;;;;20.72;100.00;100228.91;106891;1260;63887;-86
2023/06/11 05:06:44;;;;;;;9.50;4.10;;;;;;;20.70;100.00;100229.26;106383;1259;72562;-88
2023/06/11 05:09:13;;;;;;;10.30;3.70;;;;;;;20.70;100.00;100234.42;106673;1257;60767;-86
2023/06/11 05:11:42;;;;;;;6.10;3.50;;;;;;;20.68;100.00;100233.05;107821;1257;59621;-87
2023/06/11 05:14:11;;;;;;;5.30;3.40;;;;;;;20.69;100.00;100235.61;107100;1257;73027;-87
2023/06/11 05:16:38;;;;;;;6.10;3.20;;;;;;;20.70;100.00;100233.52;106107;1262;62745;-88
2023/06/11 05:19:06;;;;;;;5.30;3.70;;;;;;;20.70;100.00;100229.98;105646;1257;72770;-86
2023/06/11 05:21:36;;;;;;;5.80;4.30;;;;;;;20.67;100.00;100231.44;106024;1262;61817;-85
2023/06/11 05:24:16;;;;;;;6.20;3.20;;;;;;;20.64;100.00;100234.70;109504;1257;57256;-86
2023/06/11 05:26:45;;;;;;;6.60;3.50;;;;;;;20.64;100.00;100238.44;108461;1252;74191;-88
2023/06/11 05:29:16;;;;;;;8.50;3.80;;;;;;;20.65;100.00;100237.61;106463;1253;62744;-86
2023/06/11 05:31:45;;;;;;;10.30;5.40;;;;;;;20.66;100.00;100238.66;105822;1253;72681;-86
2023/06/11 05:34:12;;;;;;;8.50;4.20;;;;;;;20.67;100.00;100243.04;106001;1257;59561;-88
2023/06/11 05:36:42;;;;;;;7.80;4.30;;;;;;;20.67;100.00;100248.03;105923;1253;59683;-87
2023/06/11 05:39:15;;;;;;;10.00;5.30;;;;;;;20.69;100.00;100252.31;105888;1253;59659;-90
2023/06/11 05:41:42;;;;;;;5.40;3.80;;;;;;;20.72;100.00;100246.70;106168;1257;64027;-90
2023/06/11 05:44:09;;;;;;;4.90;3.20;;;;;;;20.76;100.00;100248.86;106253;1253;72195;-88
2023/06/11 05:46:39;;;;;;;7.90;3.60;;;;;;;20.79;100.00;100244.09;106099;1253;63523;-89
2023/06/11 05:49:07;;;;;;;6.70;4.10;;;;;;;20.83;100.00;100243.93;106742;1253;59701;-88
2023/06/11 05:51:36;;;;;;;7.70;3.60;;;;;;;20.86;100.00;100248.11;107182;1253;73037;-89
2023/06/11 05:54:04;;;;;;;3.80;3.50;;;;;;;20.90;100.00;100245.35;106480;1253;64011;-87
2023/06/11 05:56:33;;;;;;;3.90;3.50;;;;;;;20.94;100.00;100236.48;106413;1253;73474;-85
2023/06/11 05:59:00;;;;;;;4.20;2.90;;;;;;;20.98;100.00;100239.25;105861;1258;60570;-89
2023/06/11 06:01:28;;;;;;;5.30;3.40;;;;;;;21.00;100.00;100237.86;106037;1253;60006;-91
2023/06/11 06:03:55;;;;;;;13.00;3.50;;;;;;;21.03;100.00;100236.48;105988;1253;71925;-89
2023/06/11 06:06:28;;;;;;;5.20;3.40;;;;;;;21.08;100.00;100237.59;107254;1253;62549;-88
2023/06/11 06:08:55;;;;;;;11.70;9.50;;;;;;;21.10;100.00;100234.48;107318;1253;72524;-88
2023/06/11 06:11:22;;;;;;;7.00;3.60;;;;;;;21.15;100.00;100235.88;106763;1253;60825;-87
2023/06/11 06:13:50;;;;;;;5.60;3.50;;;;;;;21.21;100.00;100231.19;105966;1258;60410;-90
2023/06/11 06:16:17;;;;;;;9.50;3.40;;;;;;;21.30;100.00;100226.98;106562;1257;71543;-88
2023/06/11 06:18:46;;;;;;;5.90;3.60;;;;;;;21.46;99.72;100233.74;106211;1254;62982;-86
2023/06/11 06:21:14;;;;;;;5.60;3.50;;;;;;;21.64;99.37;100232.48;106104;1257;72686;-89
2023/06/11 06:23:41;;;;;;;7.30;6.30;;;;;;;21.83;99.02;100231.29;106433;1253;60750;-88
2023/06/11 06:26:12;;;;;;;5.70;3.50;;;;;;;22.08;97.95;100230.65;106025;1253;60179;-89
2023/06/11 06:28:39;;;;;;;7.80;3.60;;;;;;;22.32;96.22;100230.38;106019;1254;73348;-89
2023/06/11 06:31:07;;;;;;;7.20;4.00;;;;;;;22.63;94.99;100226.92;107186;1253;63063;-91
2023/06/11 06:33:37;;;;;;;3.90;3.00;;;;;;;23.00;93.83;100225.23;106634;1252;70465;-89
2023/06/11 06:36:08;;;;;;;9.70;2.90;;;;;;;23.43;93.23;100225.41;105945;1253;59694;-87
2023/06/11 06:38:36;;;;;;;8.00;5.00;;;;;;;23.82;91.64;100215.35;105939;1253;60367;-88
2023/06/11 06:41:03;;;;;;;4.20;3.30;;;;;;;24.16;90.05;100217.11;106191;1253;71737;-89
2023/06/11 06:43:33;;;;;;;5.20;2.60;;;;;;;24.43;87.55;100218.17;105821;1253;63933;-88
2023/06/11 06:46:01;;;;;;;3.60;3.10;;;;;;;24.63;86.37;100220.22;105856;1254;71583;-90
2023/06/11 06:48:32;;;;;;;5.90;2.90;;;;;;;24.72;84.91;100214.80;105941;1253;59633;-91
2023/06/11 06:51:02;;;;;;;3.30;3.00;;;;;;;24.77;84.74;100216.03;105503;1253;59650;-88
2023/06/11 06:53:29;;;;;;;8.50;3.90;;;;;;;24.85;84.45;100214.56;105898;1257;71089;-91
2023/06/11 06:55:58;;;;;;;8.00;3.40;;;;;;;24.89;84.22;100213.84;105913;1254;62640;-86
2023/06/11 06:58:27;;;;;;;13.50;3.20;;;;;;;24.92;82.81;100215.80;106278;1257;72689;-92
2023/06/11 07:00:55;;;;;;;7.60;4.50;;;;;;;24.94;82.94;100212.29;105874;1257;59654;-89
2023/06/11 07:03:22;;;;;;;8.60;4.40;;;;;;;24.96;82.87;100213.98;105814;1252;60393;-90
2023/06/11 07:05:50;;;;;;;7.80;4.00;;;;;;;24.98;81.57;100218.73;105871;1254;73058;-91
2023/06/11 07:08:18;;;;;;;7.70;3.20;;;;;;;25.00;81.03;100221.92;105890;1254;62670;-89
2023/06/11 07:10:49;;;;;;;7.70;3.20;;;;;;;25.06;81.58;100225.64;105361;1264;72016;-87
2023/06/11 07:13:17;;;;;;;6.30;3.00;;;;;;;25.14;80.85;100221.02;105887;1254;60405;-90
2023/06/11 07:15:46;;;;;;;9.20;2.80;;;;;;;25.23;81.39;100223.17;105912;1254;59629;-88
2023/06/11 07:18:13;;;;;;;7.20;2.70;;;;;;;25.35;81.38;100225.30;105964;1253;71846;-89
2023/06/11 07:20:43;;;;;;;6.00;2.80;;;;;;;25.50;79.55;100224.46;105817;1253;63933;-92
2023/06/11 07:23:11;;;;;;;6.60;3.50;;;;;;;25.58;78.39;100223.93;105788;1253;71703;-90
2023/06/11 07:25:38;;;;;;;4.50;3.00;;;;;;;25.67;78.18;100222.69;105813;1253;60505;-91
2023/06/11 07:28:06;;;;;;;4.40;2.80;;;;;;;25.69;77.55;100223.77;106197;1253;60993;-89
2023/06/11 07:30:34;;;;;;;6.00;2.80;;;;;;;25.64;77.51;100223.91;105902;1257;72838;-92
2023/06/11 07:33:01;;;;;;;7.40;3.30;;;;;;;25.54;77.40;100224.52;105902;1253;63720;-90
2023/06/11 07:35:29;;;;;;;4.30;2.80;;;;;;;25.39;77.85;100235.69;106023;1253;72463;-87
2023/06/11 07:37:56;;;;;;;5.40;3.30;;;;;;;25.19;78.66;100235.06;106184;1253;60481;-89
2023/06/11 07:40:24;;;;;;;7.20;4.20;;;;;;;25.02;80.26;100240.80;106028;1259;59746;-87
2023/06/11 07:42:51;;;;;;;7.60;3.70;;;;;;;24.84;81.10;100248.40;106049;1256;71808;-89
2023/06/11 07:45:18;;;;;;;9.60;3.70;;;;;;;24.66;81.33;100249.70;106023;1253;63845;-88
2023/06/11 07:47:50;;;;;;;8.10;4.20;;;;;;;24.44;82.33;100254.33;106448;1253;72099;-87
2023/06/11 07:50:17;;;;;;;4.60;2.80;;;;;;;24.22;82.68;100263.64;106310;1253;59590;-90
2023/06/11 07:52:44;;;;;;;6.50;3.00;;;;;;;24.03;83.52;100267.34;106268;1252;59673;-89
2023/06/11 07:55:18;;;;;;;6.80;3.40;;;;;;;23.81;84.97;100266.24;105969;1253;71905;-87
2023/06/11 07:57:46;;;;;;;8.10;3.80;;;;;;;23.63;85.95;100279.80;106033;1256;63811;-89
2023/06/11 08:00:13;;;;;;;7.70;3.60;;;;;;;23.46;86.48;100281.14;106022;1253;71549;-87
2023/06/11 08:02:41;;;;;;;9.60;4.50;;;;;;;23.29;87.63;100281.67;106314;1254;60085;-89
2023/06/11 08:05:10;;;;;;;8.90;3.50;;;;;;;23.17;89.08;100284.08;107791;1253;60449;-87
2023/06/11 08:07:39;;;;;;;5.70;4.40;;;;;;;23.08;89.45;100296.70;109054;1253;72909;-86
2023/06/11 08:10:06;;;;;;;6.50;3.10;;;;;;;22.99;88.42;100306.13;108488;1253;63864;-88
2023/06/11 08:12:33;;;;;;;7.60;3.80;;;;;;;22.87;88.19;100305.71;106917;1252;72707;-87
2023/06/11 08:15:03;;;;;;;4.30;3.10;;;;;;;22.77;88.98;100312.45;107522;1252;59657;-88
2023/06/11 08:17:33;;;;;;;6.50;4.10;;;;;;;22.68;89.52;100312.05;107129;1252;59603;-89
2023/06/11 08:20:06;;;;;;;29.90;21.00;;;;;;;22.60;90.95;100308.71;106272;1257;71722;-88
2023/06/11 08:22:33;;;;;;;9.50;5.70;;;;;;;22.50;92.17;100313.98;106984;1253;62689;-87
2023/06/11 08:25:01;;;;;;;11.60;5.00;;;;;;;22.37;93.52;100310.27;109676;1252;71783;-87
2023/06/11 08:27:29;;;;;;;11.00;5.20;;;;;;;22.21;94.53;100314.05;108168;1253;59653;-86
2023/06/11 08:29:55;;;;;;;7.40;5.40;;;;;;;22.06;96.50;100318.58;106065;1257;59546;-84
2023/06/11 08:32:22;;;;;;;13.70;4.90;;;;;;;21.98;99.04;100319.52;106471;1254;73119;-86
2023/06/11 08:34:50;;;;;;;11.90;6.00;;;;;;;21.91;99.80;100313.80;107204;1253;62958;-85
2023/06/11 08:37:17;;;;;;;20.00;6.30;;;;;;;21.87;100.00;100311.78;107136;1253;72452;-85
2023/06/11 08:39:45;;;;;;;7.60;6.20;;;;;;;21.86;100.00;100308.63;107147;1253;61026;-85
2023/06/11 08:42:15;;;;;;;7.70;6.00;;;;;;;21.86;100.00;100310.42;106783;1253;60341;-86
2023/06/11 08:44:43;;;;;;;6.00;5.10;;;;;;;21.84;100.00;100310.60;106938;1253;72975;-85
2023/06/11 08:47:12;;;;;;;5.10;4.50;;;;;;;21.84;100.00;100312.74;105808;1253;62720;-86
2023/06/11 08:49:39;;;;;;;8.00;4.70;;;;;;;21.84;100.00;100313.77;105669;1253;71631;-87
2023/06/11 08:52:06;;;;;;;5.00;4.10;;;;;;;21.82;100.00;100310.07;105846;1253;62120;-86
2023/06/11 08:54:33;;;;;;;7.60;4.60;;;;;;;21.82;100.00;100308.17;105858;1257;60440;-87
2023/06/11 08:57:00;;;;;;;8.30;3.90;;;;;;;21.80;100.00;100309.31;106099;1257;73957;-88
2023/06/11 08:59:27;;;;;;;4.60;4.10;;;;;;;21.77;100.00;100309.23;105851;1253;62493;-87
2023/06/11 09:01:58;;;;;;;6.70;5.00;;;;;;;21.76;100.00;100312.88;106475;1253;72038;-88
2023/06/11 09:04:26;;;;;;;5.30;4.60;;;;;;;21.78;100.00;100313.77;106239;1254;60660;-87
2023/06/11 09:07:02;;;;;;;5.80;4.10;;;;;;;21.80;100.00;100314.58;106203;1253;60881;-84
2023/06/11 09:09:29;;;;;;;7.30;4.00;;;;;;;21.86;100.00;100314.27;106147;1257;73673;-87
2023/06/11 09:11:59;;;;;;;8.80;4.40;;;;;;;21.92;100.00;100313.97;106228;1253;62662;-86
2023/06/11 09:14:28;;;;;;;4.80;4.40;;;;;;;22.00;100.00;100318.98;105875;1253;72724;-86
2023/06/11 09:16:55;;;;;;;5.10;3.80;;;;;;;22.02;100.00;100307.61;106128;1257;62090;-87
2023/06/11 09:19:31;;;;;;;6.10;3.70;;;;;;;22.05;100.00;100299.16;106149;1253;60541;-85
2023/06/11 09:22:02;;;;;;;5.80;4.70;;;;;;;22.07;100.00;100302.05;106101;1259;74091;-86
2023/06/11 09:24:33;;;;;;;6.80;4.20;;;;;;;22.09;100.00;100303.27;107276;1253;62586;-86
2023/06/11 09:27:05;;;;;;;5.70;4.20;;;;;;;22.08;100.00;100315.09;108066;1252;72748;-84
2023/06/11 09:29:34;;;;;;;8.10;4.90;;;;;;;22.06;100.00;100318.95;108154;1252;60663;-84
2023/06/11 09:32:06;;;;;;;6.20;4.70;;;;;;;22.02;100.00;100304.11;108210;1252;60569;-85
2023/06/11 09:34:56;;;;;;;5.30;4.00;;;;;;;21.96;100.00;100284.33;107232;1253;73747;-86
2023/06/11 09:37:24;;;;;;;6.90;3.90;;;;;;;21.91;100.00;100294.52;107511;1259;64085;-87
2023/06/11 09:39:51;;;;;;;7.80;4.00;;;;;;;21.86;100.00;100305.42;107723;1252;71258;-86
2023/06/11 09:42:26;;;;;;;8.50;4.30;;;;;;;21.75;100.00;100308.16;107707;1253;60921;-87
2023/06/11 09:45:00;;;;;;;7.30;4.50;;;;;;;21.64;100.00;100314.11;107284;1253;60254;-87
2023/06/11 09:47:28;;;;;;;8.30;4.90;;;;;;;21.55;100.00;100314.50;106655;1252;73741;-86
2023/06/11 09:50:17;;;;;;;9.80;4.90;;;;;;;21.49;100.00;100324.95;107097;1253;63966;-87
2023/06/11 09:53:02;;;;;;;8.10;4.60;;;;;;;21.42;100.00;100329.27;106005;1253;72989;-87
2023/06/11 09:55:36;;;;;;;6.40;4.90;;;;;;;21.35;100.00;100332.59;106061;1253;63799;-89
2023/06/11 09:58:03;;;;;;;6.50;4.60;;;;;;;21.27;100.00;100331.10;106216;1256;60492;-90
2023/06/11 10:00:33;;;;;;;4.90;4.40;;;;;;;21.21;100.00;100335.34;106505;1257;74081;-88
2023/06/11 10:03:02;;;;;;;7.10;5.20;;;;;;;21.12;100.00;100333.81;106200;1253;64071;-88
2023/06/11 10:05:35;;;;;;;7.10;4.90;;;;;;;21.05;100.00;100333.69;106325;1257;72421;-88
2023/06/11 10:08:06;;;;;;;7.20;4.70;;;;;;;20.99;100.00;100335.23;106085;1253;61717;-88
2023/06/11 10:10:39;;;;;;;5.30;4.80;;;;;;;20.99;100.00;100331.16;106420;1253;61321;-86
2023/06/11 10:13:07;;;;;;;6.80;4.60;;;;;;;21.04;100.00;100334.15;106809;1254;73835;-87
2023/06/11 10:15:37;;;;;;;6.00;4.90;;;;;;;21.11;100.00;100333.55;106393;1254;64907;-85
2023/06/11 10:18:13;;;;;;;5.40;5.00;;;;;;;21.20;100.00;100329.11;106018;1257;71569;-87
2023/06/11 10:20:58;;;;;;;6.80;4.80;;;;;;;21.28;100.00;100325.30;105954;1258;60694;-88
2023/06/11 10:23:37;;;;;;;5.40;4.40;;;;;;;21.39;100.00;100323.22;106314;1253;60481;-87
2023/06/11 10:26:05;;;;;;;6.50;4.30;;;;;;;21.48;100.00;100325.46;106166;1252;72410;-89
2023/06/11 10:28:52;;;;;;;7.20;5.40;;;;;;;21.56;100.00;100321.86;106917;1256;63921;-86
2023/06/11 10:31:25;;;;;;;8.20;4.20;;;;;;;21.65;100.00;100321.44;107636;1252;71173;-85
2023/06/11 10:34:12;;;;;;;7.70;4.70;;;;;;;21.71;100.00;100321.46;106187;1259;62004;-86
2023/06/11 10:36:41;;;;;;;6.20;4.40;;;;;;;21.77;100.00;100317.46;105948;1257;60435;-87
2023/06/11 10:39:28;;;;;;;5.80;5.10;;;;;;;21.82;100.00;100312.61;105822;1253;74036;-86
2023/06/11 10:42:02;;;;;;;8.00;6.50;;;;;;;21.91;100.00;100306.10;105898;1256;63903;-89
2023/06/11 10:44:30;;;;;;;11.80;5.80;;;;;;;21.98;100.00;100307.58;105838;1253;72603;-89
2023/06/11 10:47:00;;;;;;;8.80;5.20;;;;;;;22.07;100.00;100300.51;105912;1253;60958;-88
2023/06/11 10:49:27;;;;;;;6.00;5.20;;;;;;;22.20;100.00;100300.96;105921;1257;60429;-86
2023/06/11 10:51:54;;;;;;;6.60;5.10;;;;;;;22.38;100.00;100300.33;105856;1257;73637;-89
2023/06/11 10:54:36;;;;;;;8.50;4.70;;;;;;;22.53;100.00;100297.43;105823;1258;63431;-86
2023/06/11 10:57:04;;;;;;;5.10;4.60;;;;;;;22.68;100.00;100296.52;105770;1253;72742;-89
2023/06/11 10:59:33;;;;;;;8.10;4.50;;;;;;;22.79;100.00;100298.17;106072;1253;61794;-87
2023/06/11 11:02:02;;;;;;;6.00;4.60;;;;;;;22.85;100.00;100293.33;106216;1253;60579;-87
2023/06/11 11:04:29;;;;;;;5.50;4.30;;;;;;;22.82;100.00;100288.11;106003;1253;73944;-90
2023/06/11 11:07:08;;;;;;;4.60;4.20;;;;;;;22.77;100.00;100289.63;105838;1257;63848;-87
2023/06/11 11:09:35;;;;;;;5.40;4.00;;;;;;;22.66;100.00;100291.24;105805;1253;72743;-88
2023/06/11 11:12:02;;;;;;;5.60;4.20;;;;;;;22.52;100.00;100286.64;105757;1253;61050;-88
2023/06/11 11:14:30;;;;;;;8.70;4.70;;;;;;;22.37;100.00;100283.17;105835;1253;60493;-86
2023/06/11 11:17:00;;;;;;;6.10;4.70;;;;;;;22.27;100.00;100284.34;106155;1253;73806;-87
2023/06/11 11:19:30;;;;;;;6.20;4.90;;;;;;;22.19;100.00;100283.48;106008;1254;63830;-87
2023/06/11 11:21:57;;;;;;;7.50;4.40;;;;;;;22.14;100.00;100283.34;105874;1253;71220;-86
2023/06/11 11:24:24;;;;;;;5.60;4.40;;;;;;;22.10;100.00;100277.87;107148;1253;60474;-85
2023/06/11 11:26:51;;;;;;;6.50;5.20;;;;;;;22.10;100.00;100271.30;109619;1253;59052;-86
2023/06/11 11:29:18;;;;;;;9.10;4.10;;;;;;;22.13;100.00;100274.10;108391;1254;71737;-87
2023/06/11 11:31:46;;;;;;;6.10;4.30;;;;;;;22.20;100.00;100270.53;107910;1253;62451;-86
2023/06/11 11:34:12;;;;;;;7.10;4.30;;;;;;;22.27;100.00;100268.71;106535;1253;71572;-87
2023/06/11 11:36:45;;;;;;;7.20;4.80;;;;;;;22.33;100.00;100268.88;106570;1253;61865;-87
2023/06/11 11:39:13;;;;;;;6.80;4.30;;;;;;;22.40;100.00;100268.21;105840;1257;60374;-89
2023/06/11 11:41:49;;;;;;;4.80;4.30;;;;;;;22.47;100.00;100263.73;105806;1259;73928;-86
2023/06/11 11:44:17;;;;;;;5.30;4.30;;;;;;;22.50;100.00;100259.23;105787;1257;63943;-87
2023/06/11 11:46:44;;;;;;;6.40;4.90;;;;;;;22.52;100.00;100263.69;105792;1253;72667;-91
2023/06/11 11:49:12;;;;;;;7.20;4.80;;;;;;;22.52;100.00;100267.94;105921;1257;62074;-87
2023/06/11 11:51:40;;;;;;;5.70;3.90;;;;;;;22.49;100.00;100269.33;105985;1253;60518;-87
2023/06/11 11:54:12;;;;;;;7.40;4.40;;;;;;;22.46;100.00;100268.35;105970;1258;74008;-87
2023/06/11 11:56:40;;;;;;;5.10;4.10;;;;;;;22.44;100.00;100265.73;106113;1255;62718;-86
2023/06/11 11:59:18;;;;;;;5.60;4.00;;;;;;;22.41;100.00;100262.60;105833;1253;72630;-90
2023/06/11 12:01:56;;;;;;;4.80;4.30;;;;;;;22.39;100.00;100261.79;105847;1253;60740;-89
2023/06/11 12:04:47;;;;;;;5.10;4.10;;;;;;;22.36;100.00;100261.03;105813;1253;60661;-89
2023/06/11 12:07:17;;;;;;;6.90;4.30;;;;;;;22.29;100.00;100260.25;105876;1257;73780;-88
2023/06/11 12:09:51;;;;;;;8.70;4.70;;;;;;;22.22;100.00;100263.86;105915;1257;63864;-89
2023/06/11 12:12:18;;;;;;;4.70;4.30;;;;;;;22.17;100.00;100262.86;105990;1253;70805;-88
2023/06/11 12:14:45;;;;;;;4.70;4.20;;;;;;;22.09;100.00;100266.29;106616;1253;61277;-89
2023/06/11 12:17:12;;;;;;;8.80;5.40;;;;;;;22.00;100.00;100264.60;106500;1255;60355;-86
2023/06/11 12:19:46;;;;;;;6.60;5.30;;;;;;;21.92;100.00;100271.63;106659;1253;73724;-90
2023/06/11 12:22:17;;;;;;;6.20;4.70;;;;;;;21.81;100.00;100298.80;107078;1253;62711;-88
2023/06/11 12:24:44;;;;;;;5.60;5.20;;;;;;;21.68;100.00;100309.89;106736;1257;71309;-91
2023/06/11 12:27:15;;;;;;;7.50;5.50;;;;;;;21.49;100.00;100296.21;108466;1249;61803;-91
2023/06/11 12:29:53;;;;;;;9.90;6.00;;;;;;;21.33;100.00;100306.85;106039;1256;60306;-92
2023/06/11 12:32:25;;;;;;;8.10;5.60;;;;;;;21.18;100.00;100310.27;107102;1256;73833;-87
2023/06/11 12:34:52;;;;;;;7.20;4.50;;;;;;;20.99;100.00;100310.33;107708;1258;62708;-88
2023/06/11 12:37:20;;;;;;;5.40;4.00;;;;;;;20.80;100.00;100313.73;106524;1255;71633;-89
2023/06/11 12:39:51;;;;;;;7.00;3.40;;;;;;;20.57;100.00;100313.81;106200;1255;61354;-91
2023/06/11 12:42:20;;;;;;;8.60;3.30;;;;;;;20.45;100.00;100315.19;106198;1257;60381;-92
2023/06/11 12:44:50;;;;;;;4.70;3.40;;;;;;;20.32;100.00;100310.23;106338;1260;73722;-92
2023/06/11 12:47:20;;;;;;;5.40;2.80;;;;;;;20.22;100.00;100312.02;107422;1255;63934;-90
2023/06/11 12:49:54;;;;;;;3.10;2.70;;;;;;;20.12;100.00;100318.54;109203;1255;72744;-91
2023/06/11 12:52:24;;;;;;;5.10;3.60;;;;;;;20.04;100.00;100310.70;109318;1255;60780;-93
2023/06/11 12:54:50;;;;;;;6.10;4.60;;;;;;;19.97;100.00;100306.97;109402;1255;58916;-93
2023/06/11 12:57:24;;;;;;;7.40;4.40;;;;;;;19.92;100.00;100316.63;109236;1255;72463;-92
2023/06/11 12:59:52;;;;;;;7.20;4.60;;;;;;;19.87;100.00;100312.27;108322;1256;62769;-92
2023/06/11 13:02:20;;;;;;;7.80;5.20;;;;;;;19.83;100.00;100311.27;107543;1260;72486;-93
2023/06/11 13:04:47;;;;;;;7.70;6.00;;;;;;;19.80;100.00;100306.50;106901;1257;61068;-94
2023/06/11 13:07:15;;;;;;;6.10;5.00;;;;;;;19.78;100.00;100304.59;106748;1257;60448;-94
2023/06/11 13:09:43;;;;;;;7.50;5.10;;;;;;;19.76;100.00;100298.17;107040;1255;72510;-91
2023/06/11 13:12:10;;;;;;;8.40;6.30;;;;;;;19.75;100.00;100302.08;107079;1255;64242;-92
2023/06/11 13:14:40;;;;;;;6.80;5.50;;;;;;;19.72;100.00;100301.44;106704;1255;72659;-90
2023/06/11 13:17:07;;;;;;;8.60;5.60;;;;;;;19.70;100.00;100298.30;106222;1255;62904;-92
2023/06/11 13:20:00;;;;;;;6.50;5.70;;;;;;;19.68;100.00;100297.71;106259;1260;60397;-92
2023/06/11 13:22:27;;;;;;;8.70;6.60;;;;;;;19.67;100.00;100304.61;106009;1255;73908;-90
2023/06/11 13:24:56;;;;;;;9.90;7.20;;;;;;;19.66;100.00;100301.95;106175;1255;63784;-90
2023/06/11 13:27:25;;;;;;;8.10;6.70;;;;;;;19.67;100.00;100291.42;105974;1260;72568;-93
2023/06/11 13:29:52;;;;;;;9.80;6.60;;;;;;;19.68;100.00;100300.73;106184;1255;62086;-91
2023/06/11 13:32:19;;;;;;;11.50;6.70;;;;;;;19.68;100.00;100300.73;105994;1258;60380;-90
2023/06/11 13:34:47;;;;;;;9.70;6.30;;;;;;;19.68;100.00;100300.01;106562;1256;73053;-91
2023/06/11 13:37:14;;;;;;;8.90;6.20;;;;;;;19.69;100.00;100299.45;106199;1257;63881;-87
2023/06/11 13:39:41;;;;;;;8.10;7.10;;;;;;;19.70;100.00;100299.00;105970;1257;71866;-90
2023/06/11 13:42:08;;;;;;;9.50;6.80;;;;;;;19.71;100.00;100305.09;106169;1258;62151;-91
2023/06/11 13:44:36;;;;;;;9.90;7.90;;;;;;;19.72;100.00;100300.35;106439;1257;60441;-91
2023/06/11 13:47:03;;;;;;;10.70;7.50;;;;;;;19.74;100.00;100305.37;106305;1256;75470;-91
2023/06/11 13:49:30;;;;;;;9.70;8.10;;;;;;;19.76;100.00;100305.48;106396;1256;62508;-90
2023/06/11 13:51:58;;;;;;;10.50;6.60;;;;;;;19.79;100.00;100306.58;106718;1257;71667;-94
2023/06/11 13:54:28;;;;;;;7.00;5.80;;;;;;;19.80;100.00;100308.17;106482;1258;60876;-92
2023/06/11 13:56:57;;;;;;;8.80;5.50;;;;;;;19.83;100.00;100304.89;106256;1256;60425;-92
2023/06/11 13:59:25;;;;;;;7.50;5.40;;;;;;;19.86;100.00;100305.64;106091;1257;72589;-90
2023/06/11 14:02:00;;;;;;;8.00;5.30;;;;;;;19.90;100.00;100309.34;107070;1257;65385;-93
2023/06/11 14:04:29;;;;;;;7.20;5.30;;;;;;;19.93;100.00;100303.19;107466;1259;71152;-90
2023/06/11 14:07:03;;;;;;;9.90;5.20;;;;;;;19.97;100.00;100307.61;106451;1258;60463;-87
2023/06/11 14:09:41;;;;;;;5.50;4.80;;;;;;;19.99;100.00;100308.71;106237;1258;61136;-90
2023/06/11 14:12:09;;;;;;;7.90;6.20;;;;;;;20.02;100.00;100307.02;106674;1257;74344;-90
2023/06/11 14:14:38;;;;;;;7.50;5.80;;;;;;;20.04;100.00;100311.36;106465;1257;63006;-89
2023/06/11 14:17:08;;;;;;;9.40;5.60;;;;;;;20.07;100.00;100311.64;106712;1257;70752;-92
2023/06/11 14:19:35;;;;;;;5.20;4.50;;;;;;;20.10;100.00;100308.84;106173;1258;62141;-90
2023/06/11 14:22:02;;;;;;;6.00;5.00;;;;;;;20.14;100.00;100314.80;105906;1257;60496;-86
2023/06/11 14:24:29;;;;;;;7.90;4.90;;;;;;;20.17;100.00;100314.63;106516;1260;72879;-89
2023/06/11 14:27:00;;;;;;;7.50;5.10;;;;;;;20.20;100.00;100318.03;109269;1257;63117;-86
2023/06/11 14:29:28;;;;;;;6.00;4.80;;;;;;;20.23;100.00;100315.80;108828;1257;71483;-87
2023/06/11 14:32:02;;;;;;;8.20;5.10;;;;;;;20.22;100.00;100315.51;107032;1257;64442;-88
2023/06/11 14:34:30;;;;;;;7.30;5.80;;;;;;;20.25;100.00;100321.30;107292;1258;60440;-87
2023/06/11 14:36:57;;;;;;;7.40;4.60;;;;;;;20.25;100.00;100322.01;106044;1257;72538;-90
2023/06/11 14:39:24;;;;;;;5.20;4.30;;;;;;;20.23;100.00;100320.39;106140;1260;64062;-87
2023/06/11 14:41:52;;;;;;;4.60;4.20;;;;;;;20.22;100.00;100323.23;106015;1258;72725;-89
2023/06/11 14:44:19;;;;;;;5.20;3.70;;;;;;;20.18;100.00;100323.41;105802;1261;60820;-88
2023/06/11 14:46:49;;;;;;;4.80;4.10;;;;;;;20.14;100.00;100324.69;105882;1257;60470;-90
2023/06/11 14:49:19;;;;;;;6.10;4.60;;;;;;;20.12;100.00;100331.02;105839;1258;75819;-89
2023/06/11 14:51:47;;;;;;;5.90;4.50;;;;;;;20.08;100.00;100329.59;105991;1259;63895;-86
2023/06/11 14:54:14;;;;;;;6.20;4.40;;;;;;;20.06;100.00;100332.83;105841;1257;72412;-87
2023/06/11 14:56:41;;;;;;;7.20;3.50;;;;;;;20.05;100.00;100329.39;105978;1258;61829;-87
2023/06/11 14:59:09;;;;;;;7.00;4.00;;;;;;;20.04;100.00;100334.18;105895;1258;60372;-87
2023/06/11 15:01:40;;;;;;;4.30;3.60;;;;;;;20.02;100.00;100331.30;105971;1262;72900;-88
2023/06/11 15:04:10;;;;;;;7.30;4.50;;;;;;;20.01;100.00;100338.14;106221;1257;62648;-85
2023/06/11 15:06:38;;;;;;;4.30;3.90;;;;;;;19.99;100.00;100338.15;107321;1256;70977;-87
2023/06/11 15:09:07;;;;;;;5.20;2.90;;;;;;;19.98;100.00;100339.69;107588;1257;60548;-88
2023/06/11 15:11:35;;;;;;;5.50;3.20;;;;;;;19.97;100.00;100344.66;106674;1257;60445;-88
2023/06/11 15:14:04;;;;;;;4.70;3.60;;;;;;;19.95;100.00;100347.92;107467;1257;72605;-84
2023/06/11 15:16:32;;;;;;;5.40;4.60;;;;;;;19.92;100.00;100354.59;106702;1257;62396;-85
2023/06/11 15:19:00;;;;;;;5.80;3.60;;;;;;;19.88;100.00;100352.80;106204;1258;71248;-87
2023/06/11 15:21:27;;;;;;;5.60;3.60;;;;;;;19.85;100.00;100355.59;106217;1258;61875;-90
2023/06/11 15:23:55;;;;;;;3.70;3.10;;;;;;;19.80;100.00;100359.46;106086;1256;60457;-86
2023/06/11 15:26:22;;;;;;;4.90;3.60;;;;;;;19.75;100.00;100362.85;106111;1257;73930;-86
2023/06/11 15:28:49;;;;;;;5.30;3.80;;;;;;;19.70;100.00;100364.65;106158;1257;63892;-88
2023/06/11 15:31:19;;;;;;;5.00;3.70;;;;;;;19.65;100.00;100366.86;105910;1261;72695;-89
2023/06/11 15:33:46;;;;;;;7.50;3.70;;;;;;;19.61;100.00;100373.86;105743;1258;62011;-86
2023/06/11 15:36:13;;;;;;;5.60;3.60;;;;;;;19.58;100.00;100381.71;105693;1257;60442;-88
2023/06/11 15:38:42;;;;;;;6.40;3.00;;;;;;;19.56;100.00;100380.38;105863;1259;73788;-91
2023/06/11 15:41:09;;;;;;;2.90;2.60;;;;;;;19.54;100.00;100378.30;105643;1257;63156;-87
2023/06/11 15:43:41;;;;;;;3.70;2.00;;;;;;;19.53;100.00;100380.73;105826;1258;72482;-90
2023/06/11 15:46:07;;;;;;;3.90;2.10;;;;;;;19.49;100.00;100381.62;105674;1258;60541;-86
2023/06/11 15:48:36;;;;;;;4.00;2.10;;;;;;;19.46;100.00;100384.00;105697;1258;60557;-89
2023/06/11 15:51:04;;;;;;;3.30;2.40;;;;;;;19.43;100.00;100384.16;105515;1259;73885;-87
2023/06/11 15:53:31;;;;;;;2.90;2.70;;;;;;;19.37;100.00;100385.29;106325;1257;62518;-84
2023/06/11 15:55:57;;;;;;;2.60;2.40;;;;;;;19.35;100.00;100391.38;107311;1257;71432;-86
2023/06/11 15:58:24;;;;;;;2.90;2.30;;;;;;;19.31;100.00;100391.29;105922;1256;62042;-86
2023/06/11 16:00:51;;;;;;;4.80;2.60;;;;;;;19.26;100.00;100393.36;105918;1258;60368;-85